^^

..:: Storico WU ::..




Lo storico viene creato da WUnderground con i dati che la stazione Meteomincio invia al loro server. L' aggiornamento viene fatto ogni 5 minuti circa, tuttavia possono esserci intervalli pi¨ ampi a causa di errori, interruzioni di servizio o problemi nell' invio tramite FTP.


Storico stazione MeteoMincio
Giorno Sommario per Settembre 12, 2022 Unità:  Inglese    Metrico   Entrambi
Giorno Settimana Mese Anno
  Max: Min: Media:
Temperatura: 82 °F 59.4 °F 70.7 °F
Dew Point: 66.6 °F 55.6 °F 61.3 °F
Umidità: 89% 52.7% 73%
Velocità vento: 5.9mph 0.1mph 2.4mph
Raffica: 9.2mph - -
Direzione- - ENE
Pressione: 30 in 29.9 in -
Precipitazioni: 0 in    
 
 
Tabulato Dati per Settembre 12, 2022
Ora Temperatura Dew Point Pressione Direzione Velocità vento Raffica Umidità Intensità pioggia (oraria) Info solare Situazione
00:04 66.2 °F 61.7 °F 30 in NE 3.5 mph 5 mph 85% 0 in 0 W/m2
00:09 66.2 °F 61.7 °F 30 in NE 3.5 mph 5 mph 85% 0 in 0 W/m2
00:14 66.2 °F 61.5 °F 30 in NE 3.5 mph 5 mph 85% 0 in 0 W/m2
00:19 66.2 °F 61.2 °F 30 in NE 3.3 mph 5 mph 84.2% 0 in 0 W/m2
00:24 66 °F 61 °F 30 in NE 3.4 mph 5 mph 84% 0 in 0 W/m2
00:29 65.8 °F 60.8 °F 30 in NE 3 mph 5 mph 83.8% 0 in 0 W/m2
00:34 65.7 °F 60.4 °F 30 in ENE 2.2 mph 4 mph 83% 0 in 0 W/m2
00:39 65.3 °F 60.3 °F 30 in ENE 1.9 mph 3.5 mph 83.9% 0 in 0 W/m2
00:44 64.8 °F 60.1 °F 30 in ENE 1.9 mph 3.5 mph 85% 0 in 0 W/m2
00:49 64.4 °F 60.1 °F 30 in ENE 2.2 mph 5 mph 86% 0 in 0 W/m2
00:54 64.2 °F 59.9 °F 30 in East 2.9 mph 5 mph 86% 0 in 0 W/m2
00:59 64 °F 59.7 °F 30 in ENE 3.2 mph 6 mph 86% 0 in 0 W/m2
01:04 63.9 °F 59.5 °F 30 in ENE 2.7 mph 6 mph 86% 0 in 0 W/m2
01:09 63.9 °F 59.5 °F 30 in East 2.2 mph 3.5 mph 85.7% 0 in 0 W/m2
01:14 63.7 °F 59.2 °F 30 in ENE 2.4 mph 3.5 mph 85% 0 in 0 W/m2
01:19 63.7 °F 59 °F 30 in ENE 2.1 mph 3.5 mph 85% 0 in 0 W/m2
01:24 63.5 °F 59 °F 30 in ENE 2.1 mph 3.5 mph 85.3% 0 in 0 W/m2
01:29 63.5 °F 59 °F 30 in ENE 2.9 mph 4 mph 85.4% 0 in 0 W/m2
01:34 63.5 °F 58.8 °F 30 in ENE 3.1 mph 5 mph 84.6% 0 in 0 W/m2
01:39 63.7 °F 58.6 °F 30 in ENE 3.1 mph 5 mph 83.3% 0 in 0 W/m2
01:44 64 °F 58.5 °F 30 in NE 3 mph 5 mph 82.2% 0 in 0 W/m2
01:49 64.2 °F 58.3 °F 30 in ENE 3.5 mph 5 mph 81.2% 0 in 0 W/m2
01:54 64.2 °F 58.1 °F 30 in ENE 3.5 mph 6.9 mph 80.4% 0 in 0 W/m2
01:59 64.2 °F 57.9 °F 30 in ENE 3.5 mph 7 mph 80% 0 in 0 W/m2
02:04 64 °F 57.7 °F 30 in NE 3.2 mph 5 mph 80% 0 in 0 W/m2
02:09 64 °F 57.7 °F 30 in NE 3 mph 6 mph 80% 0 in 0 W/m2
02:14 63.9 °F 57.6 °F 30 in NE 2.5 mph 6 mph 80% 0 in 0 W/m2
02:19 63.7 °F 57.4 °F 30 in ENE 2.5 mph 4 mph 80% 0 in 0 W/m2
02:24 63.3 °F 57.4 °F 30 in NE 2.8 mph 4 mph 80.9% 0 in 0 W/m2
02:29 63.1 °F 57.4 °F 30 in NE 2.3 mph 4 mph 81% 0 in 0 W/m2
02:34 63.3 °F 57.2 °F 30 in NE 3 mph 4 mph 80.7% 0 in 0 W/m2
02:39 63.1 °F 57.2 °F 30 in NE 2.9 mph 4 mph 80.7% 0 in 0 W/m2
02:44 63.1 °F 56.8 °F 30 in NE 3 mph 5 mph 80% 0 in 0 W/m2
02:49 63.1 °F 57 °F 30 in NE 3.2 mph 5 mph 80.5% 0 in 0 W/m2
02:54 63 °F 57 °F 30 in ENE 2.7 mph 5 mph 80.8% 0 in 0 W/m2
02:59 62.8 °F 56.8 °F 30 in ENE 2.9 mph 5 mph 81.3% 0 in 0 W/m2
03:04 62.6 °F 57 °F 30 in ENE 2.9 mph 5 mph 82% 0 in 0 W/m2
03:09 62.4 °F 56.8 °F 30 in ENE 2.4 mph 4 mph 82.3% 0 in 0 W/m2
03:14 62.1 °F 56.8 °F 30 in NE 1.7 mph 3.5 mph 83% 0 in 0 W/m2
03:19 61.9 °F 57 °F 30 in ENE 1.7 mph 3.5 mph 83.7% 0 in 0 W/m2
03:24 61.7 °F 57 °F 30 in ENE 2.1 mph 3.5 mph 84.4% 0 in 0 W/m2
03:29 61.5 °F 57 °F 30 in ENE 2.2 mph 3.5 mph 85% 0 in 0 W/m2
03:34 61.5 °F 56.8 °F 30 in ENE 2.4 mph 3.5 mph 85% 0 in 0 W/m2
03:39 61.3 °F 56.8 °F 30 in ENE 2 mph 3.5 mph 85% 0 in 0 W/m2
03:44 61.3 °F 57 °F 30 in ENE 2.4 mph 4 mph 85.3% 0 in 0 W/m2
03:49 61.3 °F 57.2 °F 30 in ENE 3.1 mph 4 mph 86% 0 in 0 W/m2
03:54 61.3 °F 57.2 °F 30 in ENE 2.5 mph 4 mph 86% 0 in 0 W/m2
03:59 61.7 °F 57.6 °F 30 in ENE 1.2 mph 3.5 mph 86% 0 in 0 W/m2
04:04 61.5 °F 57.4 °F 30 in ENE 2.2 mph 3.5 mph 86% 0 in 0 W/m2
04:09 61.5 °F 57.4 °F 30 in ENE 1.5 mph 3.5 mph 86.6% 0 in 0 W/m2
04:14 61.3 °F 57.6 °F 30 in ENE 1.7 mph 3.5 mph 87% 0 in 0 W/m2
04:19 61.3 °F 57.6 °F 30 in NE 2.2 mph 3.5 mph 87% 0 in 0 W/m2
04:24 61.3 °F 57.4 °F 30 in ENE 2 mph 3.5 mph 87% 0 in 0 W/m2
04:29 61 °F 57.2 °F 30 in ENE 1.5 mph 3.5 mph 87% 0 in 0 W/m2
04:34 60.8 °F 57.2 °F 30 in ENE 1.7 mph 3.5 mph 87.6% 0 in 0 W/m2
04:39 60.6 °F 57 °F 30 in ENE 2.1 mph 3.5 mph 88% 0 in 0 W/m2
04:44 60.6 °F 57 °F 30 in ENE 2.6 mph 3.5 mph 88% 0 in 0 W/m2
04:49 60.4 °F 56.8 °F 30 in ENE 1.9 mph 4 mph 88% 0 in 0 W/m2
04:54 60.4 °F 56.8 °F 30 in ENE 2.1 mph 3.5 mph 87.7% 0 in 0 W/m2
04:59 60.4 °F 56.7 °F 30 in ENE 1.6 mph 3.5 mph 87.2% 0 in 0 W/m2
05:04 60.4 °F 56.5 °F 30 in ENE 0.6 mph 3.5 mph 87% 0 in 0 W/m2
05:09 60.3 °F 56.5 °F 30 in ENE 1 mph 3 mph 87% 0 in 0 W/m2
05:14 60.1 °F 56.3 °F 30 in ENE 1.2 mph 3.5 mph 87% 0 in 0 W/m2
05:19 60.1 °F 56.3 °F 30 in ENE 1.6 mph 3.5 mph 87.5% 0 in 0 W/m2
05:24 59.9 °F 56.3 °F 30 in ENE 2.1 mph 3.5 mph 88% 0 in 0 W/m2
05:29 59.9 °F 56.3 °F 30 in ENE 1.9 mph 3.5 mph 88% 0 in 0 W/m2
05:34 59.7 °F 56.1 °F 30 in ENE 1.3 mph 3 mph 88% 0 in 0 W/m2
05:39 59.9 °F 56.1 °F 30 in ENE 1.2 mph 2.3 mph 87.3% 0 in 0 W/m2
05:44 59.9 °F 55.9 °F 30 in ENE 0.9 mph 2.3 mph 87% 0 in 0 W/m2
05:49 59.7 °F 55.9 °F 30 in ENE 1.6 mph 3.5 mph 87% 0 in 0 W/m2
05:54 59.7 °F 55.8 °F 30 in ENE 2.1 mph 3.5 mph 87% 0 in 0 W/m2
05:59 59.5 °F 55.8 °F 30 in NE 2.4 mph 4 mph 87% 0 in 0 W/m2
06:04 59.5 °F 55.6 °F 30 in ENE 2.9 mph 4 mph 87% 0 in 0 W/m2
06:09 59.5 °F 55.6 °F 30 in ENE 2.5 mph 4 mph 87% 0 in 0 W/m2
06:14 59.5 °F 55.8 °F 30 in ENE 2.7 mph 4 mph 87% 0 in 0 W/m2
06:19 59.7 °F 55.8 °F 30 in ENE 2.2 mph 3.5 mph 87% 0 in 0 W/m2
06:24 59.7 °F 55.9 °F 30 in ENE 2.9 mph 4 mph 87.4% 0 in 0 W/m2
06:29 59.5 °F 55.9 °F 30 in ENE 3 mph 4 mph 88% 0 in 0 W/m2
06:34 59.5 °F 55.9 °F 30 in ENE 2.6 mph 4 mph 88% 0 in 0 W/m2
06:39 59.5 °F 55.9 °F 30 in ENE 2 mph 4 mph 88% 0 in 0 W/m2
06:44 59.5 °F 55.9 °F 30 in ENE 2.1 mph 3.5 mph 88% 0 in 0 W/m2
06:49 59.5 °F 55.9 °F 30 in ENE 1.9 mph 3.5 mph 88% 0 in 0 W/m2
06:54 59.4 °F 55.8 °F 30 in ENE 2.3 mph 3.5 mph 88% 0 in 0 W/m2
06:59 59.4 °F 55.8 °F 30 in ENE 2.6 mph 4 mph 88% 0 in 7 W/m2
07:04 59.4 °F 55.8 °F 30 in ENE 2.4 mph 4 mph 88% 0 in 9 W/m2
07:09 59.4 °F 55.8 °F 30 in ENE 2.1 mph 3.5 mph 88% 0 in 11 W/m2
07:14 59.4 °F 55.9 °F 30 in ENE 2.1 mph 3.5 mph 88.4% 0 in 14 W/m2
07:19 59.4 °F 56.3 °F 30 in ENE 1 mph 3.5 mph 89% 0 in 16 W/m2
07:24 59.7 °F 56.3 °F 30 in ENE 0.1 mph 3 mph 88.2% 0 in 19 W/m2
07:29 60.1 °F 56.5 °F 30 in ENE 0.2 mph 1.2 mph 87.7% 0 in 23 W/m2
07:34 60.4 °F 56.7 °F 30 in ENE 0.3 mph 1.2 mph 87% 0 in 28 W/m2
07:39 60.8 °F 56.8 °F 30 in ENE 0.1 mph 1.2 mph 87% 0 in 40 W/m2
07:44 61.3 °F 57.4 °F 30 in NE 0.7 mph 2.3 mph 87% 0 in 47 W/m2
07:49 61.7 °F 57.6 °F 30 in NNE 1.2 mph 3.5 mph 86% 0 in 56 W/m2
07:54 62.1 °F 57.7 °F 30 in NNE 1 mph 3 mph 85.8% 0 in 65 W/m2
07:59 62.4 °F 57.7 °F 30 in NNE 1.1 mph 2.3 mph 84.6% 0 in 79 W/m2
08:04 62.8 °F 57.9 °F 30 in NE 1.3 mph 3.5 mph 83.8% 0 in 95 W/m2
08:09 63.1 °F 57.9 °F 30 in NE 2.4 mph 4 mph 83% 0 in 111 W/m2
08:14 63.5 °F 58.1 °F 30 in NE 1.8 mph 4 mph 83% 0 in 123 W/m2
08:19 63.9 °F 58.5 °F 30 in ENE 1.5 mph 3.5 mph 83% 0 in 141 W/m2
08:24 63.9 °F 58.5 °F 30 in East 1.5 mph 3.5 mph 82.6% 0 in 155 W/m2
08:29 64 °F 58.5 °F 30 in ESE 1.1 mph 3 mph 82.4% 0 in 172 W/m2
08:34 64.2 °F 58.6 °F 30 in ESE 0.7 mph 2.3 mph 82% 0 in 186 W/m2
08:39 64.6 °F 59 °F 30 in South 0.7 mph 2.3 mph 82% 0 in 200 W/m2
08:44 64.9 °F 59 °F 30 in SE 0.6 mph 2.3 mph 81.1% 0 in 213 W/m2
08:49 65.3 °F 58.8 °F 30 in SE 1.7 mph 3.5 mph 79.5% 0 in 227 W/m2
08:54 65.7 °F 59.2 °F 30 in ESE 0.8 mph 3.5 mph 79.5% 0 in 243 W/m2
08:59 66.2 °F 59.5 °F 30 in ESE 0.3 mph 3 mph 79.3% 0 in 257 W/m2
09:04 66.4 °F 59.7 °F 30 in ESE 1.3 mph 2.3 mph 79% 0 in 271 W/m2
09:09 66.7 °F 59.9 °F 30 in ENE 1.7 mph 3.5 mph 78.5% 0 in 283 W/m2
09:14 67.3 °F 60.3 °F 30 in ENE 1.2 mph 3.5 mph 78.2% 0 in 297 W/m2
09:19 68 °F 61 °F 30 in ENE 2.6 mph 6 mph 78.6% 0 in 311 W/m2
09:24 68.2 °F 61 °F 30 in East 3.5 mph 7 mph 77.8% 0 in 325 W/m2
09:29 68.4 °F 61.3 °F 30 in East 2.9 mph 7 mph 78.4% 0 in 341 W/m2
09:34 68.7 °F 61.9 °F 30 in East 2.1 mph 7 mph 78.7% 0 in 341 W/m2
09:39 69.3 °F 62.1 °F 30 in ENE 2.2 mph 5 mph 77.9% 0 in 285 W/m2
09:44 69.8 °F 62.6 °F 30 in East 2.3 mph 5 mph 78% 0 in 381 W/m2
09:49 70.2 °F 62.8 °F 30 in ESE 3.3 mph 7 mph 77.8% 0 in 392 W/m2
09:54 70.5 °F 63.3 °F 30 in East 2.5 mph 7 mph 77.8% 0 in 406 W/m2
09:59 71.2 °F 63.5 °F 30 in ESE 3.2 mph 7 mph 76.7% 0 in 422 W/m2
10:04 71.2 °F 63.3 °F 30 in East 2.2 mph 6 mph 76.4% 0 in 436 W/m2
10:09 71.6 °F 63.7 °F 30 in NE 2.6 mph 7 mph 76% 0 in 448 W/m2
10:14 72 °F 63.9 °F 30 in East 2.2 mph 7 mph 75.8% 0 in 462 W/m2
10:19 72 °F 63.9 °F 30 in ENE 2.1 mph 7 mph 75.8% 0 in 473 W/m2
10:24 72.1 °F 64 °F 30 in SE 2.1 mph 7 mph 75.5% 0 in 483 W/m2
10:29 72 °F 63.9 °F 30 in ESE 2 mph 7 mph 75.3% 0 in 494 W/m2
10:34 72.5 °F 64.4 °F 30 in East 2.3 mph 7 mph 76.1% 0 in 503 W/m2
10:39 73 °F 64.8 °F 30 in East 3.2 mph 6 mph 74.9% 0 in 519 W/m2
10:44 73.2 °F 64.6 °F 30 in ENE 4.9 mph 9.2 mph 74.3% 0 in 527 W/m2
10:49 73.8 °F 64.9 °F 30 in East 5.9 mph 9.2 mph 73.7% 0 in 541 W/m2
10:54 73.8 °F 64.8 °F 30 in East 3.4 mph 9 mph 73.5% 0 in 552 W/m2
10:59 73.9 °F 64.9 °F 30 in ESE 2.9 mph 8.1 mph 73.5% 0 in 561 W/m2
11:03 74.1 °F 64.9 °F 30 in ESE 2.7 mph 8 mph 73% 0 in 571 W/m2
11:09 74.3 °F 64.9 °F 30 in ENE 5 mph 9.2 mph 72.5% 0 in 584 W/m2
11:14 74.8 °F 65.5 °F 30 in ESE 3.4 mph 9 mph 72.7% 0 in 594 W/m2
11:19 74.7 °F 65.3 °F 30 in ESE 1.6 mph 7 mph 72.5% 0 in 605 W/m2
11:24 75.4 °F 65.8 °F 30 in SE 1.2 mph 5 mph 72.1% 0 in 610 W/m2
11:29 75.6 °F 65.7 °F 30 in ESE 3.3 mph 6 mph 71.4% 0 in 621 W/m2
11:34 75.4 °F 65.7 °F 30 in ENE 4.4 mph 9 mph 71.9% 0 in 624 W/m2
11:39 75.7 °F 65.8 °F 30 in ENE 5.6 mph 9.2 mph 71.4% 0 in 633 W/m2
11:44 75.6 °F 65.8 °F 30 in ESE 1.5 mph 9 mph 71.7% 0 in 645 W/m2
11:49 76.1 °F 65.8 °F 30 in SE 1.8 mph 6 mph 70.7% 0 in 650 W/m2
11:54 76.3 °F 65.8 °F 30 in ESE 4 mph 8.1 mph 70.1% 0 in 659 W/m2
11:59 76.3 °F 65.7 °F 30 in East 2.4 mph 8.1 mph 69.4% 0 in 663 W/m2
12:04 76.6 °F 66 °F 30 in ENE 2.2 mph 8 mph 69.8% 0 in 675 W/m2
12:09 77 °F 66.2 °F 30 in ENE 2.2 mph 7 mph 69.2% 0 in 679 W/m2
12:14 77.4 °F 65.7 °F 30 in ENE 3.8 mph 8.1 mph 67.5% 0 in 680 W/m2
12:19 77.4 °F 65.8 °F 30 in East 3.3 mph 8 mph 67.9% 0 in 684 W/m2
12:24 77.4 °F 66 °F 30 in ESE 3.6 mph 7 mph 68.4% 0 in 696 W/m2
12:29 77.9 °F 66.4 °F 30 in SE 2.4 mph 7 mph 67.8% 0 in 705 W/m2
12:34 78.1 °F 65.5 °F 30 in ESE 3.1 mph 7 mph 65.3% 0 in 708 W/m2
12:39 78.1 °F 65.5 °F 30 in ENE 3.8 mph 7 mph 65.1% 0 in 708 W/m2
12:44 78.3 °F 65.8 °F 30 in East 4.4 mph 8.1 mph 65.7% 0 in 710 W/m2
12:49 78.1 °F 65.8 °F 30 in SE 2.1 mph 8 mph 66% 0 in 715 W/m2
12:54 78.6 °F 66.6 °F 30 in East 2.4 mph 7 mph 66.3% 0 in 719 W/m2
12:59 79 °F 65.3 °F 30 in ENE 4.9 mph 8.1 mph 62.9% 0 in 719 W/m2
13:04 79 °F 65.1 °F 30 in NE 5.2 mph 8.1 mph 62.6% 0 in 724 W/m2
13:09 79 °F 64.2 °F 30 in NE 3.1 mph 8.1 mph 60.5% 0 in 733 W/m2
13:14 79.3 °F 64.8 °F 30 in NE 2 mph 7 mph 61.3% 0 in 737 W/m2
13:19 79.3 °F 64.4 °F 30 in NE 3.4 mph 7 mph 60.5% 0 in 738 W/m2
13:24 79.5 °F 65.1 °F 30 in NE 2.1 mph 7 mph 61.5% 0 in 742 W/m2
13:29 79.5 °F 64.9 °F 30 in East 5.9 mph 9.2 mph 61.2% 0 in 745 W/m2
13:34 79.2 °F 64.2 °F 30 in ESE 4.2 mph 8.1 mph 60.3% 0 in 744 W/m2
13:39 79.3 °F 64.6 °F 30 in South 2.6 mph 8 mph 60.5% 0 in 744 W/m2
13:44 80.1 °F 64.4 °F 30 in East 3.2 mph 6 mph 59.1% 0 in 740 W/m2
13:49 80.2 °F 64.8 °F 30 in NE 3.9 mph 9.2 mph 59.4% 0 in 737 W/m2
13:54 80.4 °F 64.9 °F 30 in ENE 3.1 mph 9 mph 59.6% 0 in 737 W/m2
13:59 80.6 °F 65.1 °F 30 in ENE 2.5 mph 8 mph 59.4% 0 in 733 W/m2
14:04 80.6 °F 64.4 °F 30 in NE 3.9 mph 8.1 mph 57.8% 0 in 733 W/m2
14:09 80.2 °F 63.9 °F 30 in NE 2.8 mph 8.1 mph 57.2% 0 in 731 W/m2
14:14 80.6 °F 64.4 °F 30 in ENE 4.2 mph 8.1 mph 57.9% 0 in 719 W/m2
14:19 80.6 °F 63.9 °F 30 in East 2.9 mph 8 mph 56.7% 0 in 708 W/m2
14:24 80.2 °F 63.1 °F 30 in ESE 3.7 mph 7 mph 55.9% 0 in 710 W/m2
14:29 80.2 °F 64 °F 30 in ENE 2.4 mph 4 mph 57.7% 0 in 701 W/m2
14:34 80.2 °F 63.5 °F 30 in NE 2.2 mph 4 mph 56.6% 0 in 698 W/m2
14:39 80.8 °F 63.9 °F 30 in West 2.2 mph 5 mph 56.6% 0 in 698 W/m2
14:44 81.3 °F 64.4 °F 30 in SSW 2.5 mph 5 mph 56.6% 0 in 691 W/m2
14:49 81.3 °F 64.2 °F 30 in ENE 3.6 mph 7 mph 56% 0 in 689 W/m2
14:54 81.5 °F 64 °F 30 in NE 3.4 mph 7 mph 55.5% 0 in 677 W/m2
14:59 81.9 °F 64.6 °F 30 in ESE 2.6 mph 7 mph 56.1% 0 in 671 W/m2
15:04 81.3 °F 63.5 °F 30 in SE 3.7 mph 7 mph 54.7% 0 in 668 W/m2
15:09 81.5 °F 64.2 °F 30 in SSE 2.6 mph 7 mph 56% 0 in 668 W/m2
15:14 81.1 °F 63.5 °F 30 in South 2.7 mph 5 mph 54.8% 0 in 656 W/m2
15:19 81 °F 63 °F 29.9 in SE 1.7 mph 4 mph 54.7% 0 in 642 W/m2
15:24 81 °F 63.5 °F 29.9 in ENE 1.9 mph 5 mph 55.3% 0 in 636 W/m2
15:29 81.3 °F 63.3 °F 29.9 in East 1.9 mph 5 mph 54.5% 0 in 621 W/m2
15:34 81.7 °F 63.9 °F 29.9 in East 4.7 mph 7 mph 55% 0 in 610 W/m2
15:39 81.5 °F 63.9 °F 29.9 in ENE 3 mph 6.9 mph 55% 0 in 606 W/m2
15:44 81.7 °F 63.7 °F 29.9 in ENE 2.2 mph 7 mph 54.4% 0 in 601 W/m2
15:49 81.5 °F 63.3 °F 29.9 in East 2.9 mph 7 mph 54.2% 0 in 591 W/m2
15:54 81.5 °F 63.5 °F 29.9 in ESE 1.2 mph 7 mph 54.6% 0 in 580 W/m2
15:59 81.7 °F 64 °F 29.9 in ENE 3.9 mph 9.2 mph 55.1% 0 in 568 W/m2
16:04 82 °F 64.4 °F 29.9 in ENE 3.7 mph 9 mph 55.3% 0 in 557 W/m2
16:09 81.9 °F 64.2 °F 29.9 in East 4 mph 8.1 mph 55.1% 0 in 545 W/m2
16:14 81.7 °F 64 °F 29.9 in East 3.2 mph 8 mph 55% 0 in 533 W/m2
16:19 82 °F 64.2 °F 29.9 in ENE 4 mph 8.1 mph 54.8% 0 in 526 W/m2
16:24 82 °F 63.7 °F 29.9 in East 4.3 mph 8.1 mph 53.8% 0 in 515 W/m2
16:29 82 °F 63.3 °F 29.9 in NE 3.9 mph 8 mph 53.4% 0 in 503 W/m2
16:34 81.7 °F 63.7 °F 29.9 in NE 3.9 mph 7 mph 54.5% 0 in 494 W/m2
16:39 81.9 °F 63.7 °F 29.9 in NE 2.4 mph 7 mph 54.1% 0 in 473 W/m2
16:44 81.7 °F 63.1 °F 29.9 in East 3.2 mph 6 mph 53.5% 0 in 461 W/m2
16:49 81.7 °F 64 °F 29.9 in ENE 2.4 mph 6 mph 55.1% 0 in 452 W/m2
16:54 81.9 °F 63.5 °F 29.9 in NE 2.9 mph 6 mph 53.8% 0 in 441 W/m2
16:59 81.9 °F 63.3 °F 29.9 in East 3.7 mph 6 mph 53.7% 0 in 427 W/m2
17:04 81.9 °F 62.8 °F 29.9 in ENE 2.5 mph 6 mph 52.7% 0 in 413 W/m2
17:09 81.7 °F 63.1 °F 29.9 in ENE 2.8 mph 5 mph 53.5% 0 in 397 W/m2
17:14 81.7 °F 62.8 °F 29.9 in ENE 2.1 mph 5 mph 52.8% 0 in 381 W/m2
17:19 81.5 °F 62.8 °F 29.9 in ENE 2.8 mph 6 mph 52.9% 0 in 367 W/m2
17:24 81.7 °F 62.6 °F 29.9 in East 3.3 mph 6 mph 52.7% 0 in 352 W/m2
17:29 81.5 °F 62.8 °F 29.9 in ESE 3.5 mph 5 mph 53% 0 in 339 W/m2
17:34 81.3 °F 62.4 °F 29.9 in ESE 2 mph 5 mph 52.8% 0 in 322 W/m2
17:39 81.5 °F 63.3 °F 29.9 in East 2.1 mph 5 mph 54.3% 0 in 304 W/m2
17:44 81.3 °F 63.5 °F 29.9 in ESE 2.8 mph 5 mph 54.8% 0 in 290 W/m2
17:49 81.1 °F 63 °F 29.9 in East 2.8 mph 6 mph 53.9% 0 in 274 W/m2
17:54 81.3 °F 63.5 °F 29.9 in East 2.6 mph 6 mph 54.9% 0 in 258 W/m2
17:59 81 °F 63.7 °F 29.9 in ESE 2.1 mph 3.5 mph 55.8% 0 in 246 W/m2
18:04 81 °F 63.7 °F 29.9 in East 1.6 mph 3.5 mph 56% 0 in 230 W/m2
18:09 81 °F 63.7 °F 29.9 in ENE 1.4 mph 3.5 mph 55.9% 0 in 218 W/m2
18:14 80.6 °F 64.4 °F 29.9 in ENE 1.8 mph 3.5 mph 57.8% 0 in 199 W/m2
18:19 80.4 °F 64 °F 29.9 in ENE 2.4 mph 5 mph 57.5% 0 in 46 W/m2
18:24 80.4 °F 64.2 °F 29.9 in ENE 2.5 mph 5 mph 57.8% 0 in 132 W/m2
18:29 80.4 °F 64.6 °F 29.9 in ENE 2.2 mph 5 mph 58.5% 0 in 146 W/m2
18:34 80.2 °F 64.2 °F 29.9 in ENE 1.9 mph 3.5 mph 57.8% 0 in 137 W/m2
18:39 79.9 °F 64.4 °F 29.9 in ENE 2.1 mph 5 mph 59.2% 0 in 118 W/m2
18:44 79.5 °F 65.1 °F 29.9 in ENE 2.2 mph 5 mph 61.7% 0 in 100 W/m2
18:49 79.2 °F 65.1 °F 29.9 in ENE 2.1 mph 3.5 mph 62.2% 0 in 84 W/m2
18:54 79 °F 64.9 °F 29.9 in ENE 1.8 mph 3.5 mph 62.1% 0 in 70 W/m2
18:59 78.8 °F 64.9 °F 29.9 in ENE 1.6 mph 3.5 mph 62.8% 0 in 60 W/m2
19:04 78.3 °F 65.1 °F 29.9 in ENE 1.7 mph 3.5 mph 64.1% 0 in 42 W/m2
19:09 77.7 °F 65.1 °F 29.9 in ENE 1.4 mph 3.5 mph 65.4% 0 in 32 W/m2
19:14 77.2 °F 65.3 °F 29.9 in ENE 1.8 mph 3.5 mph 66.8% 0 in 25 W/m2
19:19 76.8 °F 64.9 °F 29.9 in ENE 1.8 mph 3.5 mph 66.8% 0 in 16 W/m2
19:24 76.1 °F 64.8 °F 29.9 in ENE 1.7 mph 3.5 mph 67.9% 0 in 11 W/m2
19:29 75.9 °F 64.6 °F 29.9 in ENE 1.7 mph 3.5 mph 68% 0 in 7 W/m2
19:34 75.6 °F 64.4 °F 29.9 in ENE 1.8 mph 3.5 mph 68.4% 0 in 5 W/m2
19:39 75 °F 64.4 °F 29.9 in East 1.9 mph 3.5 mph 69.3% 0 in 0 W/m2
19:44 74.3 °F 64 °F 29.9 in East 2.3 mph 3.5 mph 70.4% 0 in 0 W/m2
19:49 73.8 °F 64.6 °F 29.9 in East 2 mph 3.5 mph 72.8% 0 in 0 W/m2
19:54 73.6 °F 64.2 °F 29.9 in ENE 2.2 mph 3.5 mph 72.3% 0 in 0 W/m2
19:59 73.9 °F 64 °F 29.9 in East 2.2 mph 3.5 mph 71.5% 0 in 0 W/m2
20:04 73.9 °F 64.2 °F 29.9 in ENE 2.2 mph 3.5 mph 71.8% 0 in 0 W/m2
20:09 73.8 °F 63.7 °F 29.9 in ENE 1.5 mph 2.3 mph 70.8% 0 in 0 W/m2
20:14 73.8 °F 63.5 °F 29.9 in ENE 1.3 mph 2.3 mph 70.3% 0 in 0 W/m2
20:19 73.4 °F 63.7 °F 29.9 in East 1.5 mph 2.3 mph 71.6% 0 in 0 W/m2
20:24 72.9 °F 63.3 °F 29.9 in East 1.8 mph 2.3 mph 72.2% 0 in 0 W/m2
20:29 72.5 °F 63.3 °F 29.9 in East 1.5 mph 3.5 mph 72.7% 0 in 0 W/m2
20:34 72.3 °F 63.3 °F 29.9 in East 1.7 mph 3.5 mph 73.7% 0 in 0 W/m2
20:39 72.1 °F 63.3 °F 29.9 in East 2.3 mph 3.5 mph 74% 0 in 0 W/m2
20:44 72 °F 63.1 °F 29.9 in ENE 2.1 mph 3.5 mph 74% 0 in 0 W/m2
20:49 72.1 °F 63.3 °F 29.9 in East 1.9 mph 3.5 mph 73.6% 0 in 0 W/m2
20:54 72.1 °F 62.8 °F 29.9 in East 2 mph 3.5 mph 72.4% 0 in 0 W/m2
20:59 72 °F 62.8 °F 29.9 in ENE 2.4 mph 3.5 mph 72.6% 0 in 0 W/m2
21:04 71.8 °F 62.6 °F 29.9 in ENE 2.5 mph 3.5 mph 72.5% 0 in 0 W/m2
21:09 72.1 °F 62.4 °F 29.9 in ENE 1.9 mph 3.5 mph 71.4% 0 in 0 W/m2
21:14 72.1 °F 62.6 °F 29.9 in ENE 1.6 mph 3.5 mph 71.9% 0 in 0 W/m2
21:19 72 °F 62.6 °F 29.9 in ENE 1.7 mph 3.5 mph 72.4% 0 in 0 W/m2
21:24 71.8 °F 62.2 °F 29.9 in ENE 1.9 mph 3.5 mph 72.2% 0 in 0 W/m2
21:29 71.4 °F 62.1 °F 29.9 in ENE 2.7 mph 4 mph 72.2% 0 in 0 W/m2
21:34 71.4 °F 62.1 °F 29.9 in ENE 2.2 mph 4 mph 72.5% 0 in 0 W/m2
21:39 71.2 °F 61.9 °F 29.9 in ENE 2.1 mph 3.5 mph 72% 0 in 0 W/m2
21:44 71.4 °F 61.7 °F 29.9 in ENE 2.2 mph 3.5 mph 71.5% 0 in 0 W/m2
21:49 71.2 °F 61.7 °F 29.9 in ENE 2.5 mph 3.5 mph 71.8% 0 in 0 W/m2
21:54 71.1 °F 61.5 °F 29.9 in ENE 2.1 mph 3.5 mph 72% 0 in 0 W/m2
21:59 71.1 °F 61.5 °F 29.9 in ENE 2.1 mph 3.5 mph 72% 0 in 0 W/m2
22:04 70.9 °F 61.7 °F 29.9 in ENE 1.7 mph 3.5 mph 72.7% 0 in 0 W/m2
22:09 70.7 °F 61.7 °F 29.9 in ENE 1.7 mph 3 mph 73% 0 in 0 W/m2
22:14 70.9 °F 61.5 °F 29.9 in ENE 1.9 mph 3.5 mph 72.4% 0 in 0 W/m2
22:19 70.7 °F 61.7 °F 29.9 in ENE 1.9 mph 3.5 mph 73% 0 in 0 W/m2
22:24 70.3 °F 61.7 °F 29.9 in ENE 1.7 mph 2.3 mph 74.5% 0 in 0 W/m2
22:29 69.6 °F 61.9 °F 29.9 in ENE 1.9 mph 3.5 mph 76.3% 0 in 0 W/m2
22:34 69.4 °F 61.7 °F 29.9 in ENE 2.1 mph 3.5 mph 76.5% 0 in 0 W/m2
22:39 69.6 °F 61.3 °F 29.9 in ENE 2.2 mph 3.5 mph 75% 0 in 0 W/m2
22:44 70 °F 61.2 °F 29.9 in ENE 2.3 mph 4 mph 73.7% 0 in 0 W/m2
22:49 69.8 °F 61.3 °F 29.9 in ENE 3.5 mph 7 mph 74.5% 0 in 0 W/m2
22:54 69.4 °F 61.2 °F 29.9 in ENE 3.2 mph 7 mph 75% 0 in 0 W/m2
22:59 69.4 °F 61.2 °F 29.9 in ENE 2.9 mph 5 mph 75% 0 in 0 W/m2
23:04 69.3 °F 61.2 °F 29.9 in ENE 3.7 mph 5 mph 75.4% 0 in 0 W/m2
23:09 69.3 °F 61.3 °F 29.9 in ENE 2.9 mph 5 mph 75.7% 0 in 0 W/m2
23:14 69.1 °F 61.2 °F 29.9 in ENE 2.5 mph 5 mph 76.1% 0 in 0 W/m2
23:19 68.7 °F 61.3 °F 29.9 in ENE 2.1 mph 4 mph 77.2% 0 in 0 W/m2
23:24 68.5 °F 61.2 °F 29.9 in ENE 1.7 mph 3.5 mph 77.4% 0 in 0 W/m2
23:29 68.4 °F 61.2 °F 29.9 in East 2.5 mph 5 mph 77.6% 0 in 0 W/m2
23:34 68.5 °F 61.2 °F 29.9 in East 2.4 mph 5 mph 77.3% 0 in 0 W/m2
23:39 68.7 °F 61.2 °F 29.9 in East 2.1 mph 5 mph 77.1% 0 in 0 W/m2
23:44 68.4 °F 61.3 °F 29.9 in East 1.8 mph 3.5 mph 78% 0 in 0 W/m2
23:49 68.2 °F 61.2 °F 29.9 in East 1.3 mph 3 mph 78% 0 in 0 W/m2
23:53 68.2 °F 61.2 °F 29.9 in East 1.6 mph 3.5 mph 78% 0 in 0 W/m2
23:59 68 °F 61 °F 29.9 in ENE 1.7 mph 3.5 mph 78.6% 0 in 0 W/m2
Stazione Meteorologica MeteoMincio Rivalta s/M (MN)
Con i complimenti di Weather Underground - 4 mb


METEO PILLOLE
Temperatura più bassa in montagna in Italia
Busa Fradusta (2.606m) Pale di San Martino - Trento
-48.3°C il 27 Dicembre 2010.

Do NOT follow this link or you will be banned from the site!